createdAt,value
2023-04-22T00:04:12.432Z,99766.72
2023-04-22T00:09:15.869Z,99762.50
2023-04-22T00:14:20.706Z,99766.72
2023-04-22T00:19:23.903Z,99772.59
2023-04-22T00:24:27.120Z,99773.28
2023-04-22T00:29:31.828Z,99779.84
2023-04-22T00:34:35.095Z,99778.03
2023-04-22T00:39:39.984Z,99783.19
2023-04-22T00:44:44.900Z,99792.00
2023-04-22T00:49:50.693Z,99790.06
2023-04-22T00:54:54.038Z,99786.13
2023-04-22T00:59:58.839Z,99790.63
2023-04-22T01:05:02.564Z,99797.78
2023-04-22T01:10:06.796Z,99790.09
2023-04-22T01:15:12.520Z,99798.47
2023-04-22T01:20:16.068Z,99802.59
2023-04-22T01:25:20.756Z,99797.03
2023-04-22T01:30:24.054Z,99795.84
2023-04-22T01:35:27.391Z,99800.69
2023-04-22T01:40:33.342Z,99807.66
2023-04-22T01:45:36.611Z,99814.69
2023-04-22T01:50:39.953Z,99822.44
2023-04-22T01:55:44.899Z,99821.22
2023-04-22T02:00:48.906Z,99822.53
2023-04-22T02:05:52.207Z,99817.59
2023-04-22T02:10:56.862Z,99829.69
2023-04-22T02:16:00.212Z,99831.31
2023-04-22T02:21:03.739Z,99840.38
2023-04-22T02:26:08.868Z,99842.47
2023-04-22T02:31:11.886Z,99844.50
2023-04-22T02:36:15.142Z,99844.44
2023-04-22T02:41:19.755Z,99842.28
2023-04-22T02:46:23.120Z,99845.22
2023-04-22T02:51:26.958Z,99845.22
2023-04-22T02:56:31.857Z,99844.00
2023-04-22T03:01:36.654Z,99844.63
2023-04-22T03:06:40.416Z,99857.16
2023-04-22T03:11:45.095Z,99852.16
2023-04-22T03:16:48.430Z,99852.75
2023-04-22T03:21:51.660Z,99860.75
2023-04-22T03:26:56.519Z,99860.44
2023-04-22T03:31:59.758Z,99865.69
2023-04-22T03:37:03.120Z,99874.97
2023-04-22T03:42:07.829Z,99872.19
2023-04-22T03:47:11.160Z,99875.09
2023-04-22T03:52:15.291Z,99873.53
2023-04-22T03:57:19.902Z,99874.66
2023-04-22T04:02:23.273Z,99870.75
2023-04-22T04:07:26.566Z,99873.84
2023-04-22T04:12:31.206Z,99875.09
2023-04-22T04:17:34.551Z,99891.47
2023-04-22T04:22:37.843Z,99883.69
2023-04-22T04:27:42.799Z,99877.53
2023-04-22T04:32:46.193Z,99879.53
2023-04-22T04:37:51.019Z,99886.56
2023-04-22T04:42:55.943Z,99891.09
2023-04-22T04:48:00.874Z,99899.16
2023-04-22T04:53:04.107Z,99898.28
2023-04-22T04:58:08.741Z,99897.63
2023-04-22T05:03:12.192Z,99900.50
2023-04-22T05:08:15.520Z,99905.69
2023-04-22T05:13:20.198Z,99913.13
2023-04-22T05:18:23.538Z,99904.19
2023-04-22T05:23:27.351Z,99917.28
2023-04-22T05:28:32.034Z,99926.66
2023-04-22T05:33:35.280Z,99917.63
2023-04-22T05:38:38.655Z,99934.84
2023-04-22T05:43:43.328Z,99940.44
2023-04-22T05:48:46.493Z,99955.31
2023-04-22T05:53:49.684Z,99961.16
2023-04-22T05:58:54.364Z,99972.41
2023-04-22T06:03:58.549Z,99974.81
2023-04-22T06:09:01.951Z,99976.69
2023-04-22T06:14:06.578Z,99990.63
2023-04-22T06:19:10.504Z,99993.34
2023-04-22T06:24:13.828Z,99998.34
2023-04-22T06:29:18.428Z,100009.25
2023-04-22T06:34:21.729Z,100017.31
2023-04-22T06:39:24.892Z,100020.47
2023-04-22T06:44:29.952Z,100025.44
2023-04-22T06:49:32.893Z,100036.53
2023-04-22T06:54:36.204Z,100042.75
2023-04-22T06:59:41.485Z,100041.16
2023-04-22T07:04:45.972Z,100058.16
2023-04-22T07:09:49.197Z,100059.13
2023-04-22T07:14:53.874Z,100073.13
2023-04-22T07:19:57.188Z,100063.28
2023-04-22T07:25:00.396Z,100071.06
2023-04-22T07:30:05.850Z,100076.41
2023-04-22T07:35:09.770Z,100073.47
2023-04-22T07:40:14.279Z,100074.94
2023-04-22T07:45:19.792Z,100073.84
2023-04-22T07:50:23.101Z,100070.09
2023-04-22T07:55:26.470Z,100075.47
2023-04-22T08:00:31.298Z,100065.50
2023-04-22T08:05:34.290Z,100070.63
2023-04-22T08:10:37.587Z,100076.47
2023-04-22T08:15:42.327Z,100074.94
2023-04-22T08:20:45.395Z,100075.34
2023-04-22T08:25:49.035Z,100081.50
2023-04-22T08:30:53.655Z,100084.56
2023-04-22T08:35:56.627Z,100082.63
2023-04-22T08:41:00.881Z,100093.75
2023-04-22T08:46:05.902Z,100090.25
2023-04-22T08:51:10.071Z,100087.22
2023-04-22T08:56:14.545Z,100090.56
2023-04-22T09:01:19.973Z,100094.81
2023-04-22T09:06:24.019Z,100089.28
2023-04-22T09:11:28.399Z,100092.28
2023-04-22T09:16:33.306Z,100104.59
2023-04-22T09:21:36.726Z,100096.47
2023-04-22T09:26:41.823Z,100101.97
2023-04-22T09:31:51.132Z,100097.00
2023-04-22T09:36:55.721Z,100091.41
2023-04-22T09:41:58.809Z,100093.31
2023-04-22T09:47:03.829Z,100102.59
2023-04-22T09:52:07.824Z,100101.97
2023-04-22T09:57:15.448Z,100094.53
2023-04-22T10:02:20.422Z,100097.94
2023-04-22T10:07:24.122Z,100095.38
2023-04-22T10:12:35.283Z,100102.44
2023-04-22T10:17:41.728Z,100103.75
2023-04-22T10:22:45.983Z,100112.28
2023-04-22T10:27:55.776Z,100105.38
2023-04-22T10:33:39.621Z,100098.75
2023-04-22T10:39:03.814Z,100095.13
2023-04-22T10:44:08.308Z,100093.47
2023-04-22T10:49:15.782Z,100097.69
2023-04-22T10:54:52.786Z,100095.91
2023-04-22T10:59:59.169Z,100100.13
2023-04-22T11:05:24.626Z,100103.13
2023-04-22T11:10:43.021Z,100112.22
2023-04-22T11:15:49.508Z,100098.81
2023-04-22T11:20:55.575Z,100102.50
2023-04-22T11:26:01.576Z,100105.59
2023-04-22T11:31:06.647Z,100114.13
2023-04-22T11:36:13.486Z,100108.81
2023-04-22T11:41:22.323Z,100112.91
2023-04-22T11:46:38.630Z,100110.47
2023-04-22T11:51:55.442Z,100104.97
2023-04-22T11:56:58.612Z,100111.41
2023-04-22T12:02:01.950Z,100112.34
2023-04-22T12:07:07.010Z,100120.06
2023-04-22T12:12:10.586Z,100109.78
2023-04-22T12:17:13.816Z,100110.75
2023-04-22T12:22:27.139Z,100113.31
2023-04-22T12:27:31.854Z,100118.25
2023-04-22T12:32:35.069Z,100113.44
2023-04-22T12:37:39.760Z,100118.41
2023-04-22T12:42:43.091Z,100118.13
2023-04-22T12:47:47.268Z,100106.22
2023-04-22T12:52:52.043Z,100110.47
2023-04-22T12:57:55.577Z,100131.34
2023-04-22T13:02:58.984Z,100123.56
2023-04-22T13:08:07.626Z,100133.47
2023-04-22T13:13:18.622Z,100130.59
2023-04-22T13:18:23.261Z,100135.34
2023-04-22T13:23:28.352Z,100139.13
2023-04-22T13:28:31.501Z,100132.91
2023-04-22T13:33:34.609Z,100137.59
2023-04-22T13:38:39.401Z,100130.72
2023-04-22T13:43:42.901Z,100138.16
2023-04-22T13:48:48.022Z,100136.63
2023-04-22T13:53:53.653Z,100142.59
2023-04-22T13:58:58.222Z,100127.84
2023-04-22T14:04:01.387Z,100135.63
2023-04-22T14:09:06.321Z,100134.03
2023-04-22T14:14:09.595Z,100118.44
2023-04-22T14:19:14.374Z,100137.09
2023-04-22T14:24:19.633Z,100147.63
2023-04-22T14:29:22.884Z,100141.03
2023-04-22T14:34:27.112Z,100139.16
2023-04-22T14:39:31.805Z,100136.25
2023-04-22T14:44:34.874Z,100142.88
2023-04-22T14:49:38.436Z,100143.63
2023-04-22T14:54:43.152Z,100138.50
2023-04-22T14:59:46.447Z,100151.97
2023-04-22T15:04:50.058Z,100151.97
2023-04-22T15:09:55.256Z,100158.53
2023-04-22T15:14:58.749Z,100170.19
2023-04-22T15:20:06.116Z,100156.97
2023-04-22T15:25:12.640Z,100153.97
2023-04-22T15:30:16.291Z,100150.78
2023-04-22T15:35:20.466Z,100156.47
2023-04-22T15:40:25.447Z,100156.09
2023-04-22T15:45:28.995Z,100156.34
2023-04-22T15:50:32.387Z,100148.22
2023-04-22T15:55:37.033Z,100171.97
2023-04-22T16:00:41.587Z,100169.81
2023-04-22T16:05:44.707Z,100162.53
2023-04-22T16:10:49.319Z,100166.06
2023-04-22T16:15:52.667Z,100153.41
2023-04-22T16:20:55.988Z,100157.16
2023-04-22T16:26:02.810Z,100158.03
2023-04-22T16:31:06.405Z,100168.63
2023-04-22T16:36:10.492Z,100179.56
2023-04-22T16:41:15.657Z,100173.09
2023-04-22T16:46:18.975Z,100166.03
2023-04-22T16:51:22.322Z,100175.31
2023-04-22T16:56:27.041Z,100184.88
2023-04-22T17:01:31.422Z,100183.16
2023-04-22T17:06:35.259Z,100195.59
2023-04-22T17:11:40.513Z,100202.44
2023-04-22T17:16:43.733Z,100204.16
2023-04-22T17:21:47.051Z,100200.69
2023-04-22T17:26:52.078Z,100201.22
2023-04-22T17:31:55.799Z,100204.59
2023-04-22T17:36:59.074Z,100204.97
2023-04-22T17:42:05.108Z,100210.47
2023-04-22T17:47:08.420Z,100217.13
2023-04-22T17:52:11.788Z,100212.94
2023-04-22T17:57:18.332Z,100225.84
2023-04-22T18:02:23.062Z,100228.56
2023-04-22T18:07:27.287Z,100220.56
2023-04-22T18:12:35.702Z,100224.94
2023-04-22T18:17:39.052Z,100226.06
2023-04-22T18:22:42.534Z,100223.97
2023-04-22T18:27:50.085Z,100221.38
2023-04-22T18:32:54.514Z,100243.13
2023-04-22T18:37:57.787Z,100238.69
2023-04-22T18:43:02.613Z,100242.56
2023-04-22T18:48:05.986Z,100253.75
2023-04-22T18:53:17.614Z,100256.00
2023-04-22T18:58:23.385Z,100266.84
2023-04-22T19:03:28.320Z,100259.59
2023-04-22T19:08:31.866Z,100267.94
2023-04-22T19:13:36.456Z,100271.13
2023-04-22T19:18:40.160Z,100289.97
2023-04-22T19:23:43.486Z,100296.38
2023-04-22T19:28:48.990Z,100301.16
2023-04-22T19:33:52.260Z,100304.75
2023-04-22T19:38:55.506Z,100301.84
2023-04-22T19:44:00.252Z,100308.25
2023-04-22T19:49:03.460Z,100320.00
2023-04-22T19:54:08.646Z,100314.34
2023-04-22T19:59:14.875Z,100316.09
2023-04-22T20:04:18.616Z,100332.00
2023-04-22T20:09:22.957Z,100335.53
2023-04-22T20:14:28.030Z,100348.06
2023-04-22T20:19:31.892Z,100355.78
2023-04-22T20:24:40.593Z,100359.69
2023-04-22T20:29:46.344Z,100372.88
2023-04-22T20:34:50.095Z,100375.94
2023-04-22T20:39:54.372Z,100383.34
2023-04-22T20:44:58.917Z,100380.19
2023-04-22T20:50:02.179Z,100392.81
2023-04-22T20:55:06.801Z,100394.53
2023-04-22T21:00:12.697Z,100391.41
2023-04-22T21:05:16.234Z,100401.19
2023-04-22T21:10:20.419Z,100389.84
2023-04-22T21:15:25.965Z,100393.53
2023-04-22T21:20:32.470Z,100384.16
2023-04-22T21:25:37.080Z,100384.72
2023-04-22T21:30:42.490Z,100387.56
2023-04-22T21:35:46.015Z,100383.94
2023-04-22T21:40:49.248Z,100379.75
2023-04-22T21:45:53.799Z,100372.09
2023-04-22T21:50:57.017Z,100390.00
2023-04-22T21:56:00.370Z,100380.84
2023-04-22T22:01:05.474Z,100387.41
2023-04-22T22:06:09.168Z,100392.25
2023-04-22T22:11:23.935Z,100395.88
2023-04-22T22:16:34.853Z,100397.66
2023-04-22T22:21:38.042Z,100406.31
2023-04-22T22:26:43.030Z,100403.06
2023-04-22T22:31:47.906Z,100397.88
2023-04-22T22:36:50.895Z,100403.31
2023-04-22T22:41:55.599Z,100401.91
2023-04-22T22:47:00.133Z,100387.78
2023-04-22T22:52:03.457Z,100392.63
2023-04-22T22:57:07.227Z,100389.47
2023-04-22T23:02:14.062Z,100385.97
2023-04-22T23:07:17.906Z,100388.56
2023-04-22T23:12:21.278Z,100392.13
2023-04-22T23:17:26.194Z,100401.44
2023-04-22T23:22:29.920Z,100402.34
2023-04-22T23:27:33.255Z,100390.81
2023-04-22T23:32:41.111Z,100391.94
2023-04-22T23:37:46.137Z,100388.47
2023-04-22T23:42:49.629Z,100398.72
2023-04-22T23:47:54.341Z,100387.53
2023-04-22T23:52:57.831Z,100390.41
2023-04-22T23:58:01.424Z,100396.16
